createdAt,value
2018-03-01T00:00:46.411Z,30.83
2018-03-01T00:03:13.266Z,29.83
2018-03-01T00:05:40.114Z,27.02
2018-03-01T00:08:07.024Z,27.73
2018-03-01T00:10:33.884Z,29.83
2018-03-01T00:13:00.818Z,28.20
2018-03-01T00:15:27.766Z,30.73
2018-03-01T00:17:54.588Z,25.20
2018-03-01T00:20:21.439Z,26.85
2018-03-01T00:22:48.324Z,23.27
2018-03-01T00:25:15.187Z,27.25
2018-03-01T00:27:42.075Z,27.55
2018-03-01T00:30:08.914Z,28.33
2018-03-01T00:32:35.906Z,29.92
2018-03-01T00:35:03.486Z,30.17
2018-03-01T00:37:30.374Z,29.77
2018-03-01T00:39:57.191Z,27.52
2018-03-01T00:42:24.097Z,28.23
2018-03-01T00:44:50.999Z,29.00
2018-03-01T00:47:17.916Z,32.28
2018-03-01T00:49:44.809Z,27.75
2018-03-01T00:52:12.419Z,31.60
2018-03-01T00:57:36.378Z,25.02
2018-03-01T01:00:03.312Z,27.35
2018-03-01T01:02:30.139Z,26.48
2018-03-01T01:04:56.986Z,26.95
2018-03-01T01:07:23.868Z,27.05
2018-03-01T01:09:51.470Z,26.52
2018-03-01T01:12:18.349Z,27.37
2018-03-01T01:14:45.182Z,31.85
2018-03-01T01:17:12.039Z,27.15
2018-03-01T01:19:38.886Z,26.83
2018-03-01T01:22:05.766Z,34.80
2018-03-01T01:24:32.607Z,35.45
2018-03-01T01:26:59.454Z,33.40
2018-03-01T01:29:26.330Z,31.60
2018-03-01T01:31:53.898Z,33.97
2018-03-01T01:34:20.722Z,31.42
2018-03-01T01:36:47.704Z,29.15
2018-03-01T01:39:14.521Z,31.02
2018-03-01T01:41:41.391Z,29.05
2018-03-01T01:44:08.218Z,28.92
2018-03-01T01:46:35.098Z,29.10
2018-03-01T01:49:02.624Z,33.97
2018-03-01T01:51:29.470Z,32.63
2018-03-01T01:53:56.295Z,34.90
2018-03-01T01:56:23.151Z,32.75
2018-03-01T01:58:50.007Z,31.30
2018-03-01T02:01:16.910Z,29.50
2018-03-01T02:03:43.742Z,31.95
2018-03-01T02:06:10.578Z,29.92
2018-03-01T02:08:37.454Z,32.80
2018-03-01T02:11:04.298Z,32.15
2018-03-01T02:13:31.154Z,31.33
2018-03-01T02:15:57.981Z,30.75
2018-03-01T02:18:24.860Z,30.40
2018-03-01T02:20:52.443Z,27.65
2018-03-01T02:23:20.021Z,26.73
2018-03-01T02:25:46.859Z,27.83
2018-03-01T02:28:13.686Z,26.20
2018-03-01T02:30:40.561Z,25.83
2018-03-01T02:33:07.467Z,23.42
2018-03-01T02:35:35.044Z,24.95
2018-03-01T02:38:02.603Z,27.65
2018-03-01T02:40:29.458Z,24.48
2018-03-01T02:42:56.288Z,26.37
2018-03-01T02:45:23.119Z,23.80
2018-03-01T02:47:49.979Z,24.92
2018-03-01T02:50:16.822Z,25.65
2018-03-01T02:52:43.697Z,25.98
2018-03-01T02:55:10.532Z,25.80
2018-03-01T02:57:37.418Z,24.67
2018-03-01T03:00:05.047Z,23.90
2018-03-01T03:02:31.899Z,24.95
2018-03-01T03:04:58.783Z,22.95
2018-03-01T03:07:25.651Z,22.70
2018-03-01T03:09:52.475Z,23.60
2018-03-01T03:12:19.308Z,25.85
2018-03-01T03:14:46.171Z,23.15
2018-03-01T03:17:13.011Z,25.05
2018-03-01T03:19:39.829Z,26.02
2018-03-01T03:22:06.691Z,26.60
2018-03-01T03:24:33.542Z,25.73
2018-03-01T03:27:00.407Z,27.17
2018-03-01T03:29:27.246Z,25.58
2018-03-01T03:31:54.107Z,27.40
2018-03-01T03:34:20.980Z,25.95
2018-03-01T03:36:47.843Z,26.05
2018-03-01T03:39:14.677Z,27.50
2018-03-01T03:41:41.536Z,25.65
2018-03-01T03:44:08.439Z,26.37
2018-03-01T03:46:35.305Z,23.80
2018-03-01T03:49:02.872Z,28.67
2018-03-01T03:51:29.690Z,23.85
2018-03-01T03:53:56.530Z,26.40
2018-03-01T03:56:23.348Z,25.52
2018-03-01T03:58:50.191Z,28.52
2018-03-01T04:01:17.035Z,27.33
2018-03-01T04:03:43.891Z,25.73
2018-03-01T04:06:10.729Z,28.62
2018-03-01T04:08:37.588Z,26.23
2018-03-01T04:11:04.430Z,27.23
2018-03-01T04:13:31.306Z,26.02
2018-03-01T04:15:58.870Z,25.08
2018-03-01T04:18:25.699Z,26.08
2018-03-01T04:20:53.282Z,22.95
2018-03-01T04:23:20.131Z,26.98
2018-03-01T04:25:46.987Z,27.67
2018-03-01T04:28:13.823Z,24.92
2018-03-01T04:30:40.654Z,25.70
2018-03-01T04:33:07.507Z,25.80
2018-03-01T04:35:34.328Z,25.75
2018-03-01T04:38:01.159Z,26.27
2018-03-01T04:40:28.735Z,26.30
2018-03-01T04:42:55.564Z,24.98
2018-03-01T04:45:22.382Z,25.48
2018-03-01T04:47:49.255Z,24.10
2018-03-01T04:50:16.799Z,26.92
2018-03-01T04:52:44.378Z,26.77
2018-03-01T04:55:11.227Z,23.73
2018-03-01T04:57:38.059Z,24.37
2018-03-01T05:00:04.891Z,26.33
2018-03-01T05:02:31.774Z,26.90
2018-03-01T05:04:58.620Z,25.33
2018-03-01T05:07:25.501Z,31.37
2018-03-01T05:09:52.419Z,29.95
2018-03-01T05:12:19.296Z,32.00
2018-03-01T05:14:46.132Z,34.90
2018-03-01T05:17:13.099Z,31.73
2018-03-01T05:19:40.154Z,25.45
2018-03-01T05:22:07.068Z,28.12
2018-03-01T05:24:33.880Z,29.55
2018-03-01T05:27:00.718Z,24.98
2018-03-01T05:29:27.615Z,29.55
2018-03-01T05:31:54.566Z,27.10
2018-03-01T05:34:21.423Z,25.90
2018-03-01T05:36:48.311Z,25.65
2018-03-01T05:39:15.147Z,22.98
2018-03-01T05:41:42.003Z,26.80
2018-03-01T05:44:08.946Z,23.90
2018-03-01T05:46:35.783Z,24.48
2018-03-01T05:49:03.095Z,24.67
2018-03-01T05:51:30.803Z,27.87
2018-03-01T05:53:58.543Z,27.55
2018-03-01T05:56:25.508Z,26.50
2018-03-01T05:58:53.256Z,27.95
2018-03-01T06:01:20.927Z,23.38
2018-03-01T06:03:47.890Z,24.80
2018-03-01T06:06:15.407Z,24.10
2018-03-01T06:08:42.296Z,25.50
2018-03-01T06:11:09.198Z,24.95
2018-03-01T06:13:36.163Z,35.28
2018-03-01T06:16:03.805Z,33.05
2018-03-01T06:18:30.767Z,32.22
2018-03-01T06:20:57.743Z,28.60
2018-03-01T06:23:25.897Z,28.48
2018-03-01T06:25:53.605Z,28.00
2018-03-01T06:28:20.598Z,29.15
2018-03-01T06:30:47.559Z,34.50
2018-03-01T06:33:14.463Z,29.15
2018-03-01T06:35:41.338Z,28.85
2018-03-01T06:38:09.062Z,29.02
2018-03-01T06:40:43.024Z,27.45
2018-03-01T06:43:10.050Z,28.85
2018-03-01T06:45:37.161Z,30.10
2018-03-01T06:48:04.162Z,29.85
2018-03-01T06:50:31.060Z,31.02
2018-03-01T06:52:58.032Z,31.50
2018-03-01T06:55:25.095Z,29.87
2018-03-01T06:57:52.016Z,30.55
2018-03-01T07:00:18.990Z,30.30
2018-03-01T07:02:46.708Z,29.73
2018-03-01T07:05:13.661Z,32.05
2018-03-01T07:07:41.470Z,33.53
2018-03-01T07:10:08.463Z,34.47
2018-03-01T07:12:35.366Z,30.65
2018-03-01T07:15:02.315Z,31.67
2018-03-01T07:17:29.266Z,30.25
2018-03-01T07:19:57.000Z,32.03
2018-03-01T07:22:24.667Z,29.60
2018-03-01T07:24:52.432Z,34.53
2018-03-01T07:27:19.451Z,31.62
2018-03-01T07:29:46.359Z,31.17
2018-03-01T07:32:14.059Z,32.92
2018-03-01T07:34:40.936Z,29.50
2018-03-01T07:37:07.840Z,32.45
2018-03-01T07:39:34.635Z,31.65
2018-03-01T07:42:01.511Z,32.85
2018-03-01T07:44:28.379Z,29.92
2018-03-01T07:46:55.226Z,30.98
2018-03-01T07:49:22.360Z,32.25
2018-03-01T07:51:49.474Z,31.02
2018-03-01T07:54:17.239Z,27.90
2018-03-01T07:56:44.235Z,30.60
2018-03-01T07:59:11.976Z,31.00
2018-03-01T08:01:38.824Z,34.47
2018-03-01T08:04:05.740Z,32.80
2018-03-01T08:06:32.744Z,32.90
2018-03-01T08:09:00.978Z,31.20
2018-03-01T08:11:27.989Z,32.00
2018-03-01T08:13:54.894Z,30.35
2018-03-01T08:16:21.782Z,31.98
2018-03-01T08:18:48.776Z,35.25
2018-03-01T08:21:17.093Z,34.03
2018-03-01T08:23:44.193Z,33.42
2018-03-01T08:26:12.040Z,32.38
2018-03-01T08:28:39.110Z,30.67
2018-03-01T08:31:06.182Z,32.70
2018-03-01T08:33:33.189Z,33.92
2018-03-01T08:36:00.190Z,34.80
2018-03-01T08:38:27.931Z,29.90
2018-03-01T08:40:55.756Z,32.25
2018-03-01T08:43:22.852Z,33.33
2018-03-01T08:45:49.987Z,31.65
2018-03-01T08:48:17.096Z,33.53
2018-03-01T08:50:44.169Z,34.22
2018-03-01T08:53:12.030Z,33.58
2018-03-01T08:55:39.136Z,32.42
2018-03-01T08:58:06.099Z,32.95
2018-03-01T09:00:33.740Z,37.15
2018-03-01T09:03:01.540Z,36.35
2018-03-01T09:05:28.539Z,36.65
2018-03-01T09:07:56.263Z,35.58
2018-03-01T09:10:23.159Z,34.40
2018-03-01T09:12:51.739Z,34.90
2018-03-01T09:15:18.608Z,35.13
2018-03-01T09:17:45.677Z,33.53
2018-03-01T09:20:12.612Z,34.35
2018-03-01T09:22:39.569Z,32.67
2018-03-01T09:25:06.549Z,34.00
2018-03-01T09:27:33.524Z,32.28
2018-03-01T09:30:01.296Z,32.28
2018-03-01T09:32:29.030Z,32.22
2018-03-01T09:34:56.851Z,34.42
2018-03-01T09:37:23.949Z,36.15
2018-03-01T09:39:50.803Z,35.53
2018-03-01T09:42:17.736Z,37.40
2018-03-01T09:44:45.622Z,38.25
2018-03-01T09:47:12.495Z,36.10
2018-03-01T09:49:39.592Z,36.25
2018-03-01T09:52:06.607Z,35.05
2018-03-01T09:54:33.639Z,36.90
2018-03-01T09:57:00.678Z,40.55
2018-03-01T09:59:27.764Z,38.30
2018-03-01T10:01:55.488Z,39.88
2018-03-01T10:04:23.163Z,42.88
2018-03-01T10:06:50.126Z,41.58
2018-03-01T10:09:17.208Z,40.70
2018-03-01T10:11:44.207Z,39.03
2018-03-01T10:14:11.150Z,41.35
2018-03-01T10:16:38.112Z,45.72
2018-03-01T10:19:05.096Z,43.63
2018-03-01T10:21:32.007Z,41.75
2018-03-01T10:23:58.970Z,43.00
2018-03-01T10:26:26.635Z,44.72
2018-03-01T10:28:53.670Z,45.92
2018-03-01T10:31:20.652Z,43.00
2018-03-01T10:33:47.612Z,45.35
2018-03-01T10:36:14.499Z,43.80
2018-03-01T10:38:41.531Z,45.38
2018-03-01T10:41:08.443Z,41.60
2018-03-01T10:43:35.468Z,44.05
2018-03-01T10:46:02.543Z,46.60
2018-03-01T10:48:29.482Z,46.45
2018-03-01T10:50:57.060Z,45.28
2018-03-01T10:53:24.014Z,46.42
2018-03-01T10:55:51.058Z,44.28
2018-03-01T10:58:18.061Z,48.35
2018-03-01T11:00:45.063Z,49.95
2018-03-01T11:03:11.978Z,45.65
2018-03-01T11:05:38.854Z,48.38
2018-03-01T11:08:05.860Z,48.20
2018-03-01T11:10:32.819Z,46.88
2018-03-01T11:13:00.661Z,49.83
2018-03-01T11:15:28.438Z,44.63
2018-03-01T11:17:56.228Z,46.40
2018-03-01T11:20:23.315Z,48.53
2018-03-01T11:22:51.037Z,45.85
2018-03-01T11:25:18.179Z,48.08
2018-03-01T11:27:46.042Z,48.40
2018-03-01T11:30:13.518Z,42.97
2018-03-01T11:32:40.541Z,44.20
2018-03-01T11:35:07.598Z,44.42
2018-03-01T11:37:34.495Z,43.47
2018-03-01T11:40:01.555Z,46.72
2018-03-01T11:42:28.645Z,45.33
2018-03-01T11:44:55.615Z,46.95
2018-03-01T11:47:22.600Z,47.28
2018-03-01T11:49:50.268Z,45.33
2018-03-01T11:52:17.223Z,46.05
2018-03-01T11:54:44.311Z,47.35
2018-03-01T11:57:19.014Z,48.38
2018-03-01T11:59:46.955Z,44.70
2018-03-01T12:02:15.252Z,46.53
2018-03-01T12:04:42.363Z,44.78
2018-03-01T12:07:09.484Z,42.10
2018-03-01T12:09:36.766Z,42.50
2018-03-01T12:12:04.748Z,44.00
2018-03-01T12:14:32.691Z,44.20
2018-03-01T12:17:00.589Z,40.63
2018-03-01T12:19:29.469Z,41.08
2018-03-01T12:21:57.389Z,40.22
2018-03-01T12:24:24.960Z,41.45
2018-03-01T12:26:53.584Z,38.70
2018-03-01T12:31:55.037Z,39.28
2018-03-01T12:34:21.991Z,38.42
2018-03-01T12:36:49.008Z,41.53
2018-03-01T12:39:16.019Z,40.28
2018-03-01T12:41:43.127Z,38.28
2018-03-01T12:44:10.024Z,39.17
2018-03-01T12:46:37.016Z,41.40
2018-03-01T12:49:04.053Z,42.78
2018-03-01T12:51:31.825Z,42.75
2018-03-01T12:53:59.569Z,41.47
2018-03-01T12:56:28.245Z,40.15
2018-03-01T12:58:55.262Z,36.50
2018-03-01T13:01:22.339Z,41.85
2018-03-01T13:03:49.348Z,38.60
2018-03-01T13:06:16.317Z,43.03
2018-03-01T13:08:43.376Z,38.38
2018-03-01T13:11:10.319Z,41.42
2018-03-01T13:13:37.293Z,35.40
2018-03-01T13:16:04.950Z,41.33
2018-03-01T13:18:31.909Z,42.35
2018-03-01T13:20:58.927Z,43.33
2018-03-01T13:23:25.973Z,43.38
2018-03-01T13:25:53.112Z,46.47
2018-03-01T13:28:21.060Z,45.30
2018-03-01T13:30:53.086Z,42.97
2018-03-01T13:33:20.874Z,42.88
2018-03-01T13:35:50.784Z,45.28
2018-03-01T13:38:19.100Z,45.65
2018-03-01T13:40:46.274Z,45.78
2018-03-01T13:43:16.288Z,45.22
2018-03-01T13:45:45.303Z,45.25
2018-03-01T13:48:13.091Z,43.58
2018-03-01T13:50:40.162Z,46.50
2018-03-01T13:53:07.140Z,39.78
2018-03-01T13:55:34.191Z,43.08
2018-03-01T13:58:01.117Z,42.45
2018-03-01T14:00:27.995Z,40.12
2018-03-01T14:02:54.875Z,41.33
2018-03-01T14:05:21.741Z,41.63
2018-03-01T14:07:54.695Z,41.88
2018-03-01T14:10:21.742Z,42.20
2018-03-01T14:12:53.343Z,39.40
2018-03-01T14:15:20.248Z,46.67
2018-03-01T14:17:53.883Z,43.87
2018-03-01T14:20:20.783Z,39.70
2018-03-01T14:22:51.451Z,39.75
2018-03-01T14:25:20.242Z,38.20
2018-03-01T14:27:53.943Z,38.45
2018-03-01T14:30:22.629Z,40.88
2018-03-01T14:32:50.011Z,40.17
2018-03-01T14:35:17.782Z,39.95
2018-03-01T14:37:44.613Z,39.60
2018-03-01T14:42:45.085Z,40.78
2018-03-01T14:45:11.939Z,38.30
2018-03-01T14:47:38.824Z,42.88
2018-03-01T14:50:05.756Z,38.95
2018-03-01T14:52:32.667Z,38.05
2018-03-01T14:54:59.510Z,39.70
2018-03-01T14:57:26.399Z,39.90
2018-03-01T14:59:53.235Z,42.95
2018-03-01T15:02:20.074Z,39.70
2018-03-01T15:04:47.728Z,40.85
2018-03-01T15:07:16.038Z,46.08
2018-03-01T15:09:42.971Z,46.83
2018-03-01T15:12:09.856Z,44.60
2018-03-01T15:14:37.425Z,42.45
2018-03-01T15:17:04.512Z,41.50
2018-03-01T15:19:32.251Z,43.03
2018-03-01T15:21:59.190Z,42.08
2018-03-01T15:24:26.193Z,42.03
2018-03-01T15:26:53.200Z,40.22
2018-03-01T15:29:20.911Z,38.28
2018-03-01T15:31:47.838Z,38.17
2018-03-01T15:34:14.811Z,41.35
2018-03-01T15:36:42.637Z,39.08
2018-03-01T15:39:09.632Z,40.83
2018-03-01T15:41:36.754Z,42.65
2018-03-01T15:44:04.703Z,42.00
2018-03-01T15:46:31.780Z,39.70
2018-03-01T15:49:00.512Z,41.55
2018-03-01T15:51:27.498Z,45.28
2018-03-01T15:53:56.243Z,42.72
2018-03-01T15:56:23.250Z,45.22
2018-03-01T15:58:52.121Z,45.65
2018-03-01T16:01:19.356Z,44.85
2018-03-01T16:03:46.388Z,48.05
2018-03-01T16:06:13.395Z,43.08
2018-03-01T16:08:40.340Z,50.83
2018-03-01T16:11:07.406Z,43.53
2018-03-01T16:13:34.366Z,42.67
2018-03-01T16:16:01.335Z,41.47
2018-03-01T16:18:28.355Z,43.55
2018-03-01T16:20:55.251Z,45.72
2018-03-01T16:23:22.210Z,43.78
2018-03-01T16:25:49.174Z,42.25
2018-03-01T16:28:16.170Z,45.38
2018-03-01T16:30:48.325Z,46.75
2018-03-01T16:33:15.312Z,43.53
2018-03-01T16:35:42.344Z,45.97
2018-03-01T16:38:10.329Z,43.28
2018-03-01T16:40:37.976Z,49.53
2018-03-01T16:43:04.871Z,44.63
2018-03-01T16:45:31.807Z,48.17
2018-03-01T16:47:58.752Z,41.80
2018-03-01T16:50:26.639Z,45.08
2018-03-01T16:52:54.279Z,45.92
2018-03-01T16:55:22.567Z,47.38
2018-03-01T16:57:50.191Z,46.13
2018-03-01T17:00:17.258Z,47.20
2018-03-01T17:02:45.192Z,47.80
2018-03-01T17:05:12.263Z,49.35
2018-03-01T17:07:40.187Z,49.85
2018-03-01T17:10:07.872Z,45.55
2018-03-01T17:12:34.823Z,48.45
2018-03-01T17:15:01.890Z,45.58
2018-03-01T17:17:29.445Z,46.53
2018-03-01T17:19:56.267Z,47.45
2018-03-01T17:22:23.115Z,46.85
2018-03-01T17:24:50.117Z,47.05
2018-03-01T17:27:17.762Z,51.90
2018-03-01T17:29:45.391Z,50.17
2018-03-01T17:32:12.227Z,51.58
2018-03-01T17:34:39.097Z,53.40
2018-03-01T17:37:07.682Z,52.78
2018-03-01T17:39:34.575Z,52.58
2018-03-01T17:42:01.574Z,57.38
2018-03-01T17:44:29.407Z,56.25
2018-03-01T17:46:56.304Z,56.47
2018-03-01T17:49:23.244Z,55.22
2018-03-01T17:51:50.164Z,64.40
2018-03-01T17:54:17.015Z,58.30
2018-03-01T17:56:44.014Z,53.38
2018-03-01T17:59:11.406Z,56.70
2018-03-01T18:01:38.460Z,57.05
2018-03-01T18:04:05.397Z,55.83
2018-03-01T18:06:32.326Z,56.60
2018-03-01T18:08:59.171Z,52.20
2018-03-01T18:11:26.384Z,56.33
2018-03-01T18:13:53.457Z,55.88
2018-03-01T18:16:20.467Z,53.80
2018-03-01T18:18:48.111Z,57.10
2018-03-01T18:21:14.942Z,53.83
2018-03-01T18:23:41.795Z,55.65
2018-03-01T18:26:09.558Z,53.17
2018-03-01T18:28:36.487Z,57.33
2018-03-01T18:31:03.404Z,54.80
2018-03-01T18:33:30.261Z,54.83
2018-03-01T18:35:57.203Z,53.25
2018-03-01T18:38:24.106Z,56.20
2018-03-01T18:40:50.999Z,59.33
2018-03-01T18:43:17.827Z,55.38
2018-03-01T18:45:44.675Z,57.85
2018-03-01T18:48:12.378Z,55.42
2018-03-01T18:50:39.708Z,60.33
2018-03-01T18:53:06.518Z,58.30
2018-03-01T18:55:33.383Z,55.80
2018-03-01T18:58:00.248Z,56.03
2018-03-01T19:00:27.100Z,58.03
2018-03-01T19:02:53.940Z,55.28
2018-03-01T19:05:20.780Z,60.30
2018-03-01T19:07:47.646Z,55.72
2018-03-01T19:10:14.495Z,57.42
2018-03-01T19:12:42.448Z,53.63
2018-03-01T19:15:10.051Z,56.05
2018-03-01T19:17:37.657Z,57.75
2018-03-01T19:20:04.520Z,59.67
2018-03-01T19:22:31.370Z,56.35
2018-03-01T19:24:58.266Z,56.00
2018-03-01T19:27:25.119Z,59.85
2018-03-01T19:29:51.974Z,62.15
2018-03-01T19:32:18.899Z,57.45
2018-03-01T19:34:45.971Z,58.53
2018-03-01T19:37:12.968Z,59.33
2018-03-01T19:39:41.062Z,56.88
2018-03-01T19:42:07.965Z,59.95
2018-03-01T19:44:35.583Z,60.47
2018-03-01T19:47:02.459Z,62.90
2018-03-01T19:49:29.339Z,60.40
2018-03-01T19:51:56.189Z,56.47
2018-03-01T19:54:23.044Z,58.47
2018-03-01T19:56:50.107Z,62.00
2018-03-01T19:59:17.791Z,59.50
2018-03-01T20:01:45.099Z,64.00
2018-03-01T20:04:11.967Z,57.08
2018-03-01T20:06:38.827Z,59.10
2018-03-01T20:09:05.719Z,57.20
2018-03-01T20:11:32.551Z,58.80
2018-03-01T20:13:59.439Z,62.22
2018-03-01T20:16:27.107Z,59.00
2018-03-01T20:18:53.963Z,56.28
2018-03-01T20:21:20.815Z,60.35
2018-03-01T20:23:47.667Z,58.33
2018-03-01T20:26:14.494Z,60.60
2018-03-01T20:28:42.135Z,59.20
2018-03-01T20:31:09.032Z,60.53
2018-03-01T20:33:36.595Z,59.65
2018-03-01T20:36:03.508Z,58.97
2018-03-01T20:38:30.347Z,59.13
2018-03-01T20:40:57.178Z,58.40
2018-03-01T20:43:24.068Z,56.20
2018-03-01T20:45:52.031Z,58.05
2018-03-01T20:48:19.007Z,56.42
2018-03-01T20:50:45.874Z,55.67
2018-03-01T20:53:12.966Z,58.33
2018-03-01T20:55:39.962Z,54.08
2018-03-01T20:58:06.822Z,57.45
2018-03-01T21:00:34.429Z,57.40
2018-03-01T21:03:01.995Z,58.53
2018-03-01T21:05:28.828Z,58.47
2018-03-01T21:07:55.704Z,56.00
2018-03-01T21:10:22.914Z,61.53
2018-03-01T21:12:50.839Z,59.08
2018-03-01T21:15:17.798Z,57.38
2018-03-01T21:17:44.775Z,58.63
2018-03-01T21:20:12.459Z,59.92
2018-03-01T21:22:39.283Z,58.42
2018-03-01T21:25:06.931Z,57.28
2018-03-01T21:27:34.519Z,60.63
2018-03-01T21:30:01.712Z,60.97
2018-03-01T21:32:28.623Z,60.00
2018-03-01T21:34:55.449Z,63.00
2018-03-01T21:37:23.055Z,67.10
2018-03-01T21:39:49.910Z,62.08
2018-03-01T21:42:16.778Z,64.28
2018-03-01T21:44:44.381Z,65.87
2018-03-01T21:47:11.264Z,65.30
2018-03-01T21:49:38.106Z,63.15
2018-03-01T21:52:04.939Z,59.97
2018-03-01T21:54:31.775Z,66.22
2018-03-01T21:56:58.666Z,59.78
2018-03-01T21:59:26.251Z,61.20
2018-03-01T22:01:53.071Z,63.00
2018-03-01T22:04:19.967Z,58.05
2018-03-01T22:06:46.794Z,60.38
2018-03-01T22:09:13.631Z,60.88
2018-03-01T22:11:40.462Z,61.67
2018-03-01T22:14:07.288Z,60.70
2018-03-01T22:16:34.246Z,57.42
2018-03-01T22:19:01.147Z,58.40
2018-03-01T22:21:27.975Z,61.03
2018-03-01T22:23:54.827Z,58.22
2018-03-01T22:26:21.653Z,65.25
2018-03-01T22:28:48.543Z,58.03
2018-03-01T22:31:16.143Z,58.63
2018-03-01T22:33:42.974Z,59.55
2018-03-01T22:36:09.826Z,62.65
2018-03-01T22:38:36.657Z,58.60
2018-03-01T22:41:03.483Z,62.20
2018-03-01T22:43:30.341Z,60.60
2018-03-01T22:45:57.194Z,60.25
2018-03-01T22:48:24.031Z,61.20
2018-03-01T22:50:50.898Z,61.25
2018-03-01T22:53:17.735Z,59.30
2018-03-01T22:55:44.562Z,61.00
2018-03-01T22:58:11.415Z,66.57
2018-03-01T23:00:49.522Z,59.90
2018-03-01T23:03:16.358Z,55.45
2018-03-01T23:05:43.203Z,59.60
2018-03-01T23:08:10.070Z,62.05
2018-03-01T23:10:36.883Z,61.95
2018-03-01T23:13:04.019Z,61.28
2018-03-01T23:15:31.678Z,61.65
2018-03-01T23:17:58.535Z,61.03
2018-03-01T23:20:25.366Z,62.28
2018-03-01T23:22:52.939Z,62.03
2018-03-01T23:25:19.810Z,60.92
2018-03-01T23:27:46.683Z,63.35
2018-03-01T23:30:13.524Z,65.50
2018-03-01T23:32:40.368Z,60.25
2018-03-01T23:35:07.946Z,59.05
2018-03-01T23:37:35.531Z,58.78
2018-03-01T23:40:02.595Z,60.60
2018-03-01T23:42:29.574Z,58.72
2018-03-01T23:44:57.166Z,63.60
2018-03-01T23:47:24.056Z,61.75
2018-03-01T23:49:50.912Z,62.53
2018-03-01T23:52:17.758Z,58.80
2018-03-01T23:54:44.646Z,59.47
2018-03-01T23:57:11.522Z,62.15
2018-03-01T23:59:38.318Z,58.15
